Time;durP1;ratioP1;P1;durP2;ratioP2;P2;SDS_P1;SDS_P2;PMS_P1;PMS_P2;Temp;Humidity;BMP_temperature;BMP_pressure;BME280_temperature;BME280_humidity;BME280_pressure;Samples;Min_cycle;Max_cycle;Signal;HPM_P1;HPM_P2
2023/07/22 00:02:17;;;;;;;5.27;4.77;;;;;;;16.77;nan;99462.00;4966578;28;20508;-80
2023/07/22 00:04:42;;;;;;;4.87;4.40;;;;;;;16.81;nan;99459.88;4956985;28;20203;-80
2023/07/22 00:07:07;;;;;;;7.20;3.80;;;;;;;16.87;nan;99466.44;4958715;28;20214;-79
2023/07/22 00:09:36;;;;;;;6.03;4.23;;;;;;;16.83;nan;99460.59;4958895;28;20292;-80
2023/07/22 00:12:01;;;;;;;7.37;3.53;;;;;;;16.81;nan;99465.19;4957299;28;20210;-79
2023/07/22 00:14:26;;;;;;;4.00;3.10;;;;;;;16.82;nan;99461.53;4957861;28;20441;-79
2023/07/22 00:16:52;;;;;;;3.40;2.73;;;;;;;16.88;nan;99458.34;4945216;28;20709;-79
2023/07/22 00:19:17;;;;;;;2.57;2.37;;;;;;;16.92;nan;99458.91;4957552;28;20198;-79
2023/07/22 00:21:43;;;;;;;2.93;2.20;;;;;;;16.93;nan;99460.56;4957915;28;20763;-79
2023/07/22 00:24:08;;;;;;;3.50;2.10;;;;;;;16.92;nan;99456.25;4958081;28;20211;-80
2023/07/22 00:26:34;;;;;;;3.97;3.67;;;;;;;16.91;nan;99457.22;4957115;28;20224;-80
2023/07/22 00:28:59;;;;;;;3.10;2.30;;;;;;;16.90;nan;99455.53;4958079;28;20217;-79
2023/07/22 00:31:25;;;;;;;5.90;2.50;;;;;;;16.90;nan;99451.06;4944707;28;20262;-80
2023/07/22 00:33:51;;;;;;;3.17;1.80;;;;;;;16.93;nan;99465.88;4945775;28;20209;-79
2023/07/22 00:36:17;;;;;;;3.63;2.60;;;;;;;16.89;nan;99454.72;4955247;28;20455;-79
2023/07/22 00:38:42;;;;;;;2.67;1.97;;;;;;;16.80;nan;99461.72;4957546;28;20896;-79
2023/07/22 00:41:08;;;;;;;2.93;2.10;;;;;;;16.78;nan;99458.34;4945856;28;20457;-79
2023/07/22 00:43:33;;;;;;;8.87;2.50;;;;;;;16.72;nan;99460.72;4956227;28;20215;-79
2023/07/22 00:45:59;;;;;;;2.70;2.10;;;;;;;16.68;nan;99462.78;4944383;28;20293;-79
2023/07/22 00:48:27;;;;;;;3.53;1.90;;;;;;;16.64;nan;99460.56;4956327;28;20198;-80
2023/07/22 00:50:53;;;;;;;4.23;1.87;;;;;;;16.62;nan;99458.03;4956958;28;20228;-79
2023/07/22 00:53:18;;;;;;;2.60;2.40;;;;;;;16.64;nan;99457.91;4961569;28;20459;-82
2023/07/22 00:55:45;;;;;;;4.73;1.97;;;;;;;16.56;nan;99448.84;4956598;28;20198;-79
2023/07/22 00:58:10;;;;;;;4.00;3.30;;;;;;;16.50;nan;99445.91;4958568;28;20209;-79
2023/07/22 01:00:36;;;;;;;2.70;2.00;;;;;;;16.47;nan;99444.38;4947544;28;20702;-81
2023/07/22 01:03:03;;;;;;;3.83;2.37;;;;;;;16.44;nan;99434.03;4947294;28;20894;-80
2023/07/22 01:05:30;;;;;;;2.10;1.90;;;;;;;16.45;nan;99445.50;4958333;28;20911;-79
2023/07/22 01:07:56;;;;;;;3.50;2.37;;;;;;;16.49;nan;99438.94;4960763;28;20209;-81
2023/07/22 01:10:22;;;;;;;2.13;1.90;;;;;;;16.51;nan;99440.47;4960542;28;20453;-80
2023/07/22 01:12:47;;;;;;;2.67;2.20;;;;;;;16.54;nan;99440.19;4948927;28;20670;-79
2023/07/22 01:15:13;;;;;;;3.13;2.23;;;;;;;16.54;nan;99434.03;4945994;28;20255;-80
2023/07/22 01:17:39;;;;;;;2.90;2.27;;;;;;;16.56;nan;99437.41;4960982;28;20512;-81
2023/07/22 01:20:06;;;;;;;3.77;1.97;;;;;;;16.56;nan;99434.75;4963273;28;20452;-79
2023/07/22 01:22:33;;;;;;;3.57;2.50;;;;;;;16.57;nan;99444.38;4961184;28;20752;-80
2023/07/22 01:24:59;;;;;;;3.93;2.27;;;;;;;16.56;nan;99440.88;4958862;28;20530;-81
2023/07/22 01:27:25;;;;;;;2.90;1.87;;;;;;;16.51;nan;99443.13;4961771;28;20585;-80
2023/07/22 01:29:51;;;;;;;5.17;2.17;;;;;;;16.49;nan;99442.41;4962615;28;20930;-79
2023/07/22 01:32:17;;;;;;;2.63;2.40;;;;;;;16.48;nan;99445.22;4962050;28;20221;-80
2023/07/22 01:34:42;;;;;;;3.10;2.30;;;;;;;16.42;nan;99432.50;4962724;28;20799;-80
2023/07/22 01:37:09;;;;;;;2.27;1.57;;;;;;;16.35;nan;99435.72;4962164;28;20218;-82
2023/07/22 01:39:35;;;;;;;3.80;1.87;;;;;;;16.28;nan;99436.41;4966056;28;20277;-79
2023/07/22 01:42:01;;;;;;;2.87;1.73;;;;;;;16.25;nan;99449.94;4961905;28;20812;-80
2023/07/22 01:44:27;;;;;;;3.23;1.83;;;;;;;16.24;nan;99440.31;4961277;28;20484;-80
2023/07/22 01:46:52;;;;;;;2.80;2.00;;;;;;;16.22;nan;99439.59;4961139;28;21450;-79
2023/07/22 01:49:17;;;;;;;3.30;2.00;;;;;;;16.18;nan;99435.56;4949897;28;20202;-81
2023/07/22 01:51:43;;;;;;;2.33;2.03;;;;;;;16.17;nan;99445.31;4960643;28;20239;-79
2023/07/22 01:54:09;;;;;;;2.47;1.70;;;;;;;16.11;nan;99437.91;4962326;28;20211;-80
2023/07/22 01:56:36;;;;;;;2.10;1.90;;;;;;;16.04;nan;99439.44;4963250;28;20207;-79
2023/07/22 01:59:01;;;;;;;2.43;2.00;;;;;;;16.02;nan;99444.88;4961792;28;20487;-79
2023/07/22 02:01:28;;;;;;;2.77;2.40;;;;;;;16.01;nan;99445.84;4950686;28;20976;-80
2023/07/22 02:03:53;;;;;;;2.50;2.20;;;;;;;16.00;nan;99443.34;4961328;28;20211;-80
2023/07/22 02:06:19;;;;;;;3.03;2.28;;;;;;;16.00;nan;99440.69;4961992;28;20449;-79
2023/07/22 02:08:45;;;;;;;3.10;2.40;;;;;;;15.98;nan;99435.53;4966806;28;20193;-79
2023/07/22 02:11:11;;;;;;;2.35;1.63;;;;;;;15.97;nan;99433.84;4960641;28;20779;-80
2023/07/22 02:13:37;;;;;;;2.70;1.73;;;;;;;15.98;nan;99432.88;4963410;28;20577;-79
2023/07/22 02:16:03;;;;;;;2.23;1.90;;;;;;;16.02;nan;99439.59;4948108;28;20468;-79
2023/07/22 02:18:29;;;;;;;3.57;2.00;;;;;;;16.08;nan;99436.38;4959277;28;20635;-81
2023/07/22 02:20:55;;;;;;;4.37;2.13;;;;;;;16.08;nan;99431.09;4960152;28;20217;-79
2023/07/22 02:23:22;;;;;;;2.90;2.30;;;;;;;16.06;nan;99430.38;4960135;28;20269;-80
2023/07/22 02:25:51;;;;;;;3.83;3.00;;;;;;;16.07;nan;99433.88;4959155;28;20472;-81
2023/07/22 02:28:21;;;;;;;3.47;1.87;;;;;;;16.06;nan;99433.03;4957446;28;20457;-80
2023/07/22 02:30:53;;;;;;;3.17;2.10;;;;;;;16.07;nan;99437.38;4957182;28;20478;-79
2023/07/22 02:33:21;;;;;;;2.00;1.80;;;;;;;16.11;nan;99444.06;4957837;28;20460;-80
2023/07/22 02:35:47;;;;;;;2.28;1.90;;;;;;;16.16;nan;99441.00;4959252;28;20445;-80
2023/07/22 02:38:14;;;;;;;2.80;1.97;;;;;;;16.17;nan;99439.19;4960357;28;20691;-80
2023/07/22 02:40:40;;;;;;;2.87;2.40;;;;;;;16.20;nan;99429.13;4958505;28;21028;-81
2023/07/22 02:43:06;;;;;;;3.03;2.50;;;;;;;16.25;nan;99439.34;4960576;28;20843;-79
2023/07/22 02:45:33;;;;;;;2.43;1.90;;;;;;;16.29;nan;99435.44;4958900;28;20964;-79
2023/07/22 02:47:58;;;;;;;2.50;2.10;;;;;;;16.33;nan;99434.16;4961384;28;20454;-80
2023/07/22 02:50:23;;;;;;;2.47;1.90;;;;;;;16.34;nan;99439.34;4958045;28;20489;-80
2023/07/22 02:52:49;;;;;;;2.43;1.93;;;;;;;16.36;nan;99426.81;4939520;28;20668;-80
2023/07/22 02:55:18;;;;;;;2.73;1.90;;;;;;;16.37;nan;99432.94;4958405;28;20235;-80
2023/07/22 02:57:46;;;;;;;3.20;2.13;;;;;;;16.37;nan;99431.13;4960917;28;20293;-81
2023/07/22 03:00:12;;;;;;;2.80;1.90;;;;;;;16.36;nan;99431.25;4961473;28;20406;-81
2023/07/22 03:02:38;;;;;;;2.40;1.87;;;;;;;16.33;nan;99429.69;4957696;28;20293;-79
2023/07/22 03:05:07;;;;;;;2.97;2.30;;;;;;;16.28;nan;99429.31;4943332;28;20436;-84
2023/07/22 03:07:37;;;;;;;4.80;2.30;;;;;;;16.23;nan;99425.38;4943385;28;21244;-80
2023/07/22 03:10:05;;;;;;;2.50;2.20;;;;;;;16.21;nan;99425.53;4957476;28;20943;-80
2023/07/22 03:12:30;;;;;;;3.83;2.43;;;;;;;16.19;nan;99429.28;4956971;28;20558;-80
2023/07/22 03:14:56;;;;;;;3.60;3.27;;;;;;;16.15;nan;99426.91;4957403;28;20540;-82
2023/07/22 03:17:21;;;;;;;2.77;1.73;;;;;;;16.11;nan;99429.97;4958978;28;20201;-79
2023/07/22 03:19:47;;;;;;;3.40;2.23;;;;;;;16.06;nan;99422.44;4941292;28;20551;-81
2023/07/22 03:22:15;;;;;;;3.17;2.30;;;;;;;16.03;nan;99425.34;4943778;28;20241;-84
2023/07/22 03:24:41;;;;;;;2.27;1.90;;;;;;;16.02;nan;99428.16;4957230;28;20211;-82
2023/07/22 03:27:07;;;;;;;2.50;2.10;;;;;;;16.00;nan;99438.03;4956369;28;20512;-78
2023/07/22 03:29:33;;;;;;;5.00;2.10;;;;;;;15.99;nan;99439.88;4956468;28;20216;-80
2023/07/22 03:31:59;;;;;;;3.77;2.17;;;;;;;15.99;nan;99428.44;4943658;28;20607;-82
2023/07/22 03:34:29;;;;;;;2.25;1.75;;;;;;;15.95;nan;99433.16;4943484;28;20467;-80
2023/07/22 03:36:54;;;;;;;2.22;1.83;;;;;;;15.87;nan;99438.28;4957716;28;20266;-78
2023/07/22 03:39:20;;;;;;;3.93;1.87;;;;;;;15.72;nan;99427.25;4955315;28;20210;-80
2023/07/22 03:41:46;;;;;;;2.77;2.30;;;;;;;15.60;nan;99438.88;4956204;28;20645;-82
2023/07/22 03:44:12;;;;;;;2.97;2.53;;;;;;;15.48;nan;99438.13;4956084;28;20223;-78
2023/07/22 03:46:37;;;;;;;3.63;2.17;;;;;;;15.42;nan;99434.22;4943261;28;20594;-80
2023/07/22 03:49:03;;;;;;;4.77;2.73;;;;;;;15.42;nan;99430.75;4943256;28;20478;-83
2023/07/22 03:51:28;;;;;;;2.50;1.87;;;;;;;15.43;nan;99433.22;4954235;28;20481;-80
2023/07/22 03:53:54;;;;;;;2.93;1.97;;;;;;;15.45;nan;99436.59;4956022;28;20218;-79
2023/07/22 03:56:20;;;;;;;2.10;1.90;;;;;;;15.50;nan;99430.91;4952884;28;20755;-82
2023/07/22 03:58:46;;;;;;;2.20;1.80;;;;;;;15.55;nan;99435.78;4945221;28;20628;-80
2023/07/22 04:01:12;;;;;;;4.00;2.40;;;;;;;15.60;nan;99434.41;4939640;28;20336;-81
2023/07/22 04:03:38;;;;;;;3.10;2.30;;;;;;;15.62;nan;99429.00;4954052;28;20273;-82
2023/07/22 04:06:03;;;;;;;2.20;2.00;;;;;;;15.54;nan;99429.66;4955002;28;20209;-78
2023/07/22 04:08:28;;;;;;;3.67;1.63;;;;;;;15.47;nan;99431.16;4955336;28;20231;-78
2023/07/22 04:10:55;;;;;;;2.73;1.70;;;;;;;15.41;nan;99435.16;4955701;28;20233;-80
2023/07/22 04:13:20;;;;;;;2.63;2.00;;;;;;;15.38;nan;99434.59;4937668;28;20221;-80
2023/07/22 04:15:48;;;;;;;2.90;2.60;;;;;;;15.33;nan;99434.16;4955508;28;20218;-80
2023/07/22 04:18:18;;;;;;;3.78;2.60;;;;;;;15.29;nan;99433.59;4956461;28;20458;-82
2023/07/22 04:20:44;;;;;;;2.30;2.10;;;;;;;15.32;nan;99429.84;4939623;28;20463;-82
2023/07/22 04:23:10;;;;;;;1.85;1.75;;;;;;;15.36;nan;99433.88;4955069;28;20214;-78
2023/07/22 04:25:44;;;;;;;2.50;2.30;;;;;;;15.35;nan;99435.72;4953603;28;20244;-80
2023/07/22 04:28:09;;;;;;;2.75;2.20;;;;;;;15.34;nan;99438.47;4953992;28;20744;-78
2023/07/22 04:30:35;;;;;;;3.43;2.00;;;;;;;15.36;nan;99436.53;4956342;28;20327;-82
2023/07/22 04:33:01;;;;;;;2.90;2.47;;;;;;;15.41;nan;99436.97;4955270;28;20202;-79
2023/07/22 04:35:31;;;;;;;2.90;2.07;;;;;;;15.46;nan;99434.78;4955683;28;20469;-78
2023/07/22 04:37:57;;;;;;;2.60;1.77;;;;;;;15.50;nan;99438.84;4953024;28;20480;-79
2023/07/22 04:40:24;;;;;;;3.37;2.47;;;;;;;15.59;nan;99439.84;4955846;28;20553;-82
2023/07/22 04:42:51;;;;;;;2.53;1.85;;;;;;;15.67;nan;99432.91;4953607;28;20213;-79
2023/07/22 04:45:18;;;;;;;5.18;2.42;;;;;;;15.73;nan;99444.81;4955970;28;20222;-80
2023/07/22 04:47:46;;;;;;;4.85;2.60;;;;;;;15.79;nan;99435.47;4947183;28;20243;-79
2023/07/22 04:50:13;;;;;;;2.70;1.90;;;;;;;15.89;nan;99441.66;4951242;28;20714;-82
2023/07/22 04:52:38;;;;;;;2.83;2.50;;;;;;;16.07;nan;99442.66;4951023;28;20727;-79
2023/07/22 04:55:08;;;;;;;3.00;2.37;;;;;;;16.41;nan;99438.78;4949757;28;20339;-80
2023/07/22 04:57:35;;;;;;;4.40;2.42;;;;;;;16.77;nan;99445.25;4945850;28;20231;-83
2023/07/22 05:00:03;;;;;;;2.80;2.10;;;;;;;17.20;nan;99443.88;4949277;28;20216;-83
2023/07/22 05:02:30;;;;;;;2.33;2.13;;;;;;;17.68;nan;99451.66;4951168;28;20223;-80
2023/07/22 05:04:56;;;;;;;4.27;2.03;;;;;;;18.19;nan;99448.63;4949997;28;20839;-78
2023/07/22 05:07:21;;;;;;;2.83;2.47;;;;;;;18.71;nan;99444.31;4950448;28;20886;-79
2023/07/22 05:09:47;;;;;;;3.87;1.70;;;;;;;19.23;nan;99457.69;4951201;28;20698;-82
2023/07/22 05:12:12;;;;;;;3.90;1.80;;;;;;;19.71;nan;99458.13;4950763;28;20228;-80
2023/07/22 05:14:38;;;;;;;3.03;2.20;;;;;;;20.05;nan;99455.41;4949559;28;20215;-80
2023/07/22 05:17:03;;;;;;;2.70;2.50;;;;;;;20.33;nan;99449.81;4951907;28;20226;-81
2023/07/22 05:19:29;;;;;;;2.20;1.97;;;;;;;20.61;nan;99450.38;4949872;28;20288;-81
2023/07/22 05:21:54;;;;;;;2.20;1.83;;;;;;;20.91;nan;99456.88;4950666;28;20706;-83
2023/07/22 05:24:21;;;;;;;2.67;1.80;;;;;;;21.17;nan;99448.69;4950985;28;20516;-81
2023/07/22 05:26:46;;;;;;;3.97;2.10;;;;;;;21.29;nan;99454.50;4946771;28;20298;-79
2023/07/22 05:29:12;;;;;;;2.90;1.93;;;;;;;21.41;nan;99457.66;4932083;28;20442;-82
2023/07/22 05:31:37;;;;;;;2.50;1.90;;;;;;;21.64;nan;99457.78;4951620;28;20470;-80
2023/07/22 05:34:03;;;;;;;2.90;2.60;;;;;;;21.91;nan;99461.84;4948746;28;20279;-82
2023/07/22 05:36:29;;;;;;;4.80;2.20;;;;;;;22.37;nan;99459.28;4949207;28;20488;-79
2023/07/22 05:38:54;;;;;;;3.70;2.40;;;;;;;22.69;nan;99454.72;4950294;28;20474;-81
2023/07/22 05:41:20;;;;;;;2.07;1.60;;;;;;;22.93;nan;99456.34;4947886;28;20210;-81
2023/07/22 05:43:46;;;;;;;1.90;1.80;;;;;;;23.17;nan;99461.50;4948388;28;20703;-82
2023/07/22 05:46:11;;;;;;;3.20;1.53;;;;;;;23.37;nan;99451.06;4948980;28;20203;-81
2023/07/22 05:48:37;;;;;;;1.80;1.60;;;;;;;23.58;nan;99458.38;4951017;28;20767;-81
2023/07/22 05:51:03;;;;;;;2.33;1.70;;;;;;;23.90;nan;99456.34;4951803;28;20323;-78
2023/07/22 05:53:29;;;;;;;2.60;2.03;;;;;;;24.23;nan;99455.91;4954775;28;20805;-80
2023/07/22 05:55:54;;;;;;;2.00;1.80;;;;;;;24.55;nan;99464.50;4953783;28;20678;-81
2023/07/22 05:58:19;;;;;;;5.93;2.10;;;;;;;24.82;nan;99450.31;4950644;28;21915;-79
2023/07/22 06:00:46;;;;;;;3.83;2.27;;;;;;;24.99;nan;99450.03;4954633;28;20217;-81
2023/07/22 06:03:12;;;;;;;2.70;1.97;;;;;;;25.17;nan;99453.94;4965699;28;20239;-81
2023/07/22 06:05:37;;;;;;;2.58;2.05;;;;;;;25.56;nan;99457.06;4969986;28;20763;-80
2023/07/22 06:08:03;;;;;;;3.10;1.50;;;;;;;25.87;nan;99450.41;4971866;28;20207;-80
2023/07/22 06:10:30;;;;;;;2.50;1.63;;;;;;;26.13;nan;99447.81;4970661;28;20217;-81
2023/07/22 06:12:55;;;;;;;3.47;1.93;;;;;;;26.29;nan;99441.22;4968988;28;20207;-80
2023/07/22 06:15:20;;;;;;;2.67;1.90;;;;;;;26.24;nan;99444.53;4970505;28;20470;-81
2023/07/22 06:17:46;;;;;;;1.90;1.70;;;;;;;26.14;nan;99452.19;4973551;28;20593;-81
2023/07/22 06:20:12;;;;;;;1.93;1.57;;;;;;;26.29;nan;99446.63;4972585;28;20198;-81
2023/07/22 06:22:37;;;;;;;4.40;1.67;;;;;;;26.44;nan;99443.75;4972490;28;20254;-81
2023/07/22 06:25:03;;;;;;;2.17;1.40;;;;;;;26.51;nan;99454.53;4975903;28;20212;-81
2023/07/22 06:27:29;;;;;;;2.20;1.80;;;;;;;26.77;nan;99453.78;4978669;28;20220;-81
2023/07/22 06:29:55;;;;;;;2.30;2.07;;;;;;;27.07;nan;99451.47;4974591;28;20475;-81
2023/07/22 06:32:20;;;;;;;2.63;1.67;;;;;;;27.29;nan;99449.41;4973482;28;20307;-81
2023/07/22 06:34:45;;;;;;;3.80;1.70;;;;;;;27.43;nan;99451.03;4967872;28;20604;-80
2023/07/22 06:37:11;;;;;;;1.70;1.60;;;;;;;27.59;nan;99449.75;4967902;28;20623;-80
2023/07/22 06:39:36;;;;;;;3.80;1.70;;;;;;;27.77;nan;99451.78;4966863;28;20192;-81
2023/07/22 06:42:02;;;;;;;1.60;1.43;;;;;;;28.00;nan;99453.97;4980283;28;20744;-81
2023/07/22 06:44:27;;;;;;;1.77;1.20;;;;;;;28.13;nan;99453.09;4980988;28;20222;-81
2023/07/22 06:46:53;;;;;;;8.83;1.80;;;;;;;28.20;nan;99448.50;4965160;28;20456;-81
2023/07/22 06:49:18;;;;;;;2.13;1.63;;;;;;;28.27;nan;99451.97;4980423;28;20204;-81
2023/07/22 06:51:43;;;;;;;2.40;1.70;;;;;;;28.37;nan;99449.63;4981885;28;20262;-80
2023/07/22 06:54:09;;;;;;;1.57;1.47;;;;;;;28.30;nan;99448.88;4981462;28;20232;-81
2023/07/22 06:56:34;;;;;;;3.50;1.80;;;;;;;28.23;nan;99453.47;4979216;28;20469;-81
2023/07/22 06:59:00;;;;;;;3.33;1.83;;;;;;;28.20;nan;99453.91;4981121;28;20204;-81
2023/07/22 07:01:25;;;;;;;2.07;1.53;;;;;;;28.23;nan;99443.47;4979351;28;20220;-81
2023/07/22 07:03:50;;;;;;;2.90;2.20;;;;;;;28.29;nan;99436.38;4974027;28;20481;-81
2023/07/22 07:06:16;;;;;;;2.10;1.70;;;;;;;28.40;nan;99445.66;4952288;28;20442;-81
2023/07/22 07:08:41;;;;;;;2.20;1.90;;;;;;;28.54;nan;99449.97;4975444;28;20822;-80
2023/07/22 07:11:07;;;;;;;2.00;1.50;;;;;;;28.81;nan;99444.38;4974426;28;20420;-81
2023/07/22 07:13:32;;;;;;;2.43;1.47;;;;;;;28.85;nan;99446.41;4973954;28;20673;-81
2023/07/22 07:16:24;;;;;;;2.20;1.53;;;;;;;28.88;nan;99440.56;4970707;28;20234;-81
2023/07/22 07:18:51;;;;;;;4.73;2.17;;;;;;;29.11;nan;99439.13;4963583;28;20294;-81
2023/07/22 07:21:17;;;;;;;4.40;1.97;;;;;;;29.27;nan;99441.28;4964930;28;20784;-80
2023/07/22 07:23:43;;;;;;;3.13;1.70;;;;;;;29.48;nan;99445.41;4976697;28;20449;-81
2023/07/22 07:26:08;;;;;;;4.40;3.73;;;;;;;29.69;nan;99449.59;4976923;28;20526;-81
2023/07/22 07:28:34;;;;;;;6.30;4.37;;;;;;;29.71;nan;99449.38;4976064;28;20205;-81
2023/07/22 07:30:59;;;;;;;4.90;2.67;;;;;;;29.85;nan;99444.63;4977102;28;20234;-81
2023/07/22 07:33:25;;;;;;;3.40;2.77;;;;;;;29.91;nan;99441.81;4974709;28;20350;-81
2023/07/22 07:35:50;;;;;;;2.77;1.97;;;;;;;30.04;nan;99443.53;4976316;28;20203;-81
2023/07/22 07:38:15;;;;;;;3.20;2.03;;;;;;;30.18;nan;99447.72;4974199;28;20196;-81
2023/07/22 07:40:41;;;;;;;4.10;1.93;;;;;;;30.19;nan;99441.25;4976288;28;20573;-81
2023/07/22 07:43:07;;;;;;;1.63;1.50;;;;;;;30.25;nan;99446.84;4973391;28;20196;-81
2023/07/22 07:45:32;;;;;;;12.57;4.00;;;;;;;30.13;nan;99447.56;4966510;28;20206;-81
2023/07/22 07:47:58;;;;;;;3.30;2.53;;;;;;;29.92;nan;99446.19;4964859;28;20208;-81
2023/07/22 07:50:23;;;;;;;11.13;2.97;;;;;;;29.78;nan;99450.94;4964041;28;20491;-81
2023/07/22 07:52:48;;;;;;;2.40;1.57;;;;;;;29.77;nan;99451.16;4963166;28;20650;-80
2023/07/22 07:55:14;;;;;;;3.13;1.80;;;;;;;29.87;nan;99448.75;4960705;28;20304;-80
2023/07/22 07:57:39;;;;;;;2.10;1.73;;;;;;;30.10;nan;99441.78;4964332;28;20189;-81
2023/07/22 08:00:08;;;;;;;7.60;2.37;;;;;;;30.24;nan;99442.47;4962266;28;20519;-81
2023/07/22 08:02:33;;;;;;;3.57;1.80;;;;;;;30.44;nan;99448.44;4962376;28;20226;-80
2023/07/22 08:04:58;;;;;;;5.43;2.07;;;;;;;30.60;nan;99447.78;4960247;28;20427;-80
2023/07/22 08:10:07;;;;;;;3.70;1.97;;;;;;;30.47;nan;99447.16;5783539;23;20219;-80
2023/07/22 08:12:33;;;;;;;4.03;1.80;;;;;;;30.28;nan;99449.91;4964459;28;20598;-80
2023/07/22 08:14:58;;;;;;;2.27;2.00;;;;;;;30.14;nan;99446.53;4963684;28;20472;-81
2023/07/22 08:17:24;;;;;;;2.80;1.93;;;;;;;30.10;nan;99444.50;4963775;28;20505;-80
2023/07/22 08:19:49;;;;;;;3.20;1.80;;;;;;;30.06;nan;99441.44;4963898;28;20201;-81
2023/07/22 08:22:15;;;;;;;2.30;2.10;;;;;;;30.05;nan;99434.34;4962494;28;20214;-80
2023/07/22 08:24:40;;;;;;;14.63;2.20;;;;;;;30.03;nan;99441.91;4963670;28;20211;-80
2023/07/22 08:27:05;;;;;;;3.00;2.30;;;;;;;29.92;nan;99438.06;4962600;28;20214;-81
2023/07/22 08:29:32;;;;;;;1.73;1.50;;;;;;;29.87;nan;99437.09;4969415;28;20268;-80
2023/07/22 08:31:58;;;;;;;3.13;1.60;;;;;;;29.80;nan;99439.06;4961754;28;20220;-80
2023/07/22 08:34:23;;;;;;;2.77;1.30;;;;;;;29.69;nan;99443.34;4962695;28;20469;-80
2023/07/22 08:36:49;;;;;;;2.00;1.33;;;;;;;29.59;nan;99446.53;4963261;28;20673;-80
2023/07/22 08:39:14;;;;;;;2.10;1.70;;;;;;;29.37;nan;99442.63;4961365;28;20211;-81
2023/07/22 08:41:40;;;;;;;2.10;1.57;;;;;;;29.18;nan;99433.69;4960084;28;20688;-80
2023/07/22 08:44:08;;;;;;;1.83;1.57;;;;;;;28.95;nan;99440.53;4961346;28;20712;-80
2023/07/22 08:46:33;;;;;;;1.80;1.70;;;;;;;28.82;nan;99441.44;4961348;28;20487;-80
2023/07/22 08:49:00;;;;;;;5.23;2.07;;;;;;;28.88;nan;99437.84;4960341;28;20541;-80
2023/07/22 08:51:30;;;;;;;2.40;1.93;;;;;;;28.97;nan;99432.16;4963880;28;20204;-80
2023/07/22 08:53:59;;;;;;;2.07;1.30;;;;;;;29.03;nan;99428.56;4960938;28;21035;-81
2023/07/22 08:56:25;;;;;;;1.70;1.60;;;;;;;29.05;nan;99440.84;4962523;28;20486;-80
2023/07/22 08:58:52;;;;;;;2.60;1.97;;;;;;;29.14;nan;99433.31;4952766;28;20491;-81
2023/07/22 09:01:17;;;;;;;2.17;1.60;;;;;;;29.32;nan;99436.00;4963032;28;20507;-81
2023/07/22 09:03:44;;;;;;;2.53;1.33;;;;;;;29.38;nan;99445.13;4960925;28;20519;-80
2023/07/22 09:06:12;;;;;;;2.60;1.50;;;;;;;29.42;nan;99440.09;4960843;28;20251;-80
2023/07/22 09:08:38;;;;;;;1.97;1.60;;;;;;;29.31;nan;99439.78;4955942;28;20455;-80
2023/07/22 09:11:04;;;;;;;2.23;2.03;;;;;;;29.28;nan;99434.81;4953376;28;20235;-81
2023/07/22 09:13:29;;;;;;;2.00;1.80;;;;;;;29.10;nan;99427.50;4962348;28;20447;-80
2023/07/22 09:15:58;;;;;;;1.90;1.57;;;;;;;29.07;nan;99433.34;4962619;28;20669;-81
2023/07/22 09:18:23;;;;;;;5.40;1.50;;;;;;;29.21;nan;99431.34;4963397;28;20434;-80
2023/07/22 09:20:48;;;;;;;1.37;1.27;;;;;;;29.49;nan;99432.75;4970985;28;20979;-80
2023/07/22 09:23:14;;;;;;;1.93;1.73;;;;;;;29.66;nan;99427.56;4972470;28;20200;-81
2023/07/22 09:25:41;;;;;;;1.30;1.20;;;;;;;29.60;nan;99431.97;4973787;28;20693;-80
2023/07/22 09:28:06;;;;;;;2.80;1.30;;;;;;;29.56;nan;99430.75;4972680;28;20208;-80
2023/07/22 09:30:36;;;;;;;2.60;1.73;;;;;;;29.38;nan;99445.13;4974613;28;20498;-81
2023/07/22 09:33:03;;;;;;;3.47;1.60;;;;;;;29.21;nan;99431.34;4974120;28;20205;-81
2023/07/22 09:35:45;;;;;;;1.50;1.40;;;;;;;28.93;nan;99436.38;4956847;28;20482;-78
2023/07/22 09:38:11;;;;;;;1.80;1.23;;;;;;;28.62;nan;99435.34;4959060;28;20499;-78
2023/07/22 09:40:40;;;;;;;1.97;1.50;;;;;;;28.69;nan;99441.56;4961893;28;20793;-78
2023/07/22 09:43:06;;;;;;;2.20;1.53;;;;;;;28.95;nan;99427.00;4961359;28;21133;-79
2023/07/22 09:45:32;;;;;;;2.40;1.73;;;;;;;29.02;nan;99433.16;4958520;28;20463;-78
2023/07/22 09:47:59;;;;;;;5.50;1.90;;;;;;;28.88;nan;99424.34;4960918;28;20463;-78
2023/07/22 09:50:26;;;;;;;2.90;1.70;;;;;;;28.75;nan;99423.63;4960914;28;20787;-79
2023/07/22 09:52:57;;;;;;;2.07;1.30;;;;;;;28.72;nan;99426.78;4959614;28;20464;-80
2023/07/22 09:55:28;;;;;;;2.17;1.60;;;;;;;28.75;nan;99431.72;4960887;28;20467;-79
2023/07/22 09:58:00;;;;;;;2.50;1.67;;;;;;;28.89;nan;99426.00;4958402;28;20928;-79
2023/07/22 10:00:31;;;;;;;3.10;1.63;;;;;;;29.11;nan;99426.47;4958946;28;20482;-79
2023/07/22 10:02:58;;;;;;;1.77;1.67;;;;;;;29.26;nan;99419.84;4960296;28;20539;-80
2023/07/22 10:05:24;;;;;;;2.40;1.13;;;;;;;29.28;nan;99424.00;4961415;28;20443;-80
2023/07/22 10:07:52;;;;;;;2.30;1.30;;;;;;;29.09;nan;99433.13;4956590;28;20554;-80
2023/07/22 10:10:20;;;;;;;4.17;1.53;;;;;;;28.86;nan;99426.44;4955520;28;20562;-80
2023/07/22 10:12:57;;;;;;;1.77;1.20;;;;;;;28.70;nan;99421.56;4954385;28;20480;-81
2023/07/22 10:15:25;;;;;;;2.50;1.30;;;;;;;28.74;nan;99414.69;4952430;28;20454;-79
2023/07/22 10:17:53;;;;;;;1.37;1.10;;;;;;;28.88;nan;99418.09;4939571;28;20924;-79
2023/07/22 10:20:19;;;;;;;1.60;1.50;;;;;;;28.87;nan;99419.16;4954705;28;20456;-79
2023/07/22 10:22:46;;;;;;;2.00;1.20;;;;;;;28.86;nan;99422.91;4954900;28;20469;-79
2023/07/22 10:25:14;;;;;;;2.60;1.60;;;;;;;28.71;nan;99425.13;4960855;28;20508;-79
2023/07/22 10:27:41;;;;;;;1.53;1.40;;;;;;;28.66;nan;99414.97;4949458;28;20460;-79
2023/07/22 10:30:15;;;;;;;2.83;1.80;;;;;;;28.80;nan;99421.09;4958079;28;20550;-81
2023/07/22 10:32:41;;;;;;;8.03;1.70;;;;;;;29.03;nan;99410.50;4964345;28;20495;-79
2023/07/22 10:35:11;;;;;;;2.03;1.17;;;;;;;29.21;nan;99409.69;4958582;28;20530;-78
2023/07/22 10:37:41;;;;;;;1.23;1.10;;;;;;;29.22;nan;99416.78;4959919;28;20504;-79
2023/07/22 10:40:27;;;;;;;1.60;1.50;;;;;;;29.36;nan;99405.81;4959323;28;20452;-80
2023/07/22 10:43:05;;;;;;;1.80;1.50;;;;;;;29.55;nan;99404.75;4960431;28;20448;-80
2023/07/22 10:45:33;;;;;;;1.73;1.63;;;;;;;29.71;nan;99401.47;4961004;28;20570;-80
2023/07/22 10:48:03;;;;;;;1.93;1.23;;;;;;;29.87;nan;99401.91;4958010;28;20534;-79
2023/07/22 10:50:54;;;;;;;1.87;1.20;;;;;;;30.01;nan;99392.53;4957927;28;20475;-78
2023/07/22 10:53:19;;;;;;;2.37;1.60;;;;;;;29.98;nan;99391.13;4957817;28;20452;-79
2023/07/22 10:56:04;;;;;;;1.30;1.20;;;;;;;29.78;nan;99394.06;4958409;28;20826;-80
2023/07/22 10:58:54;;;;;;;1.83;1.30;;;;;;;29.59;nan;99392.41;4958357;28;20227;-80
2023/07/22 11:01:25;;;;;;;2.47;1.53;;;;;;;29.51;nan;99390.84;4958085;28;20538;-80
2023/07/22 11:04:15;;;;;;;2.27;1.33;;;;;;;29.54;nan;99389.56;4958434;28;20462;-79
2023/07/22 11:06:43;;;;;;;5.20;1.60;;;;;;;29.66;nan;99382.38;4957055;28;20526;-79
2023/07/22 11:09:29;;;;;;;1.50;1.20;;;;;;;29.82;nan;99380.09;4958447;28;20448;-78
2023/07/22 11:11:59;;;;;;;1.53;1.43;;;;;;;29.89;nan;99378.94;4954568;28;20822;-79
2023/07/22 11:14:29;;;;;;;2.93;1.60;;;;;;;29.90;nan;99369.78;4949421;28;20570;-79
2023/07/22 11:16:57;;;;;;;1.20;1.10;;;;;;;29.85;nan;99375.03;4952223;28;20466;-79
2023/07/22 11:19:24;;;;;;;1.87;1.67;;;;;;;29.83;nan;99376.31;4957605;28;20490;-80
2023/07/22 11:21:50;;;;;;;2.00;1.53;;;;;;;29.75;nan;99372.06;4956330;28;20546;-79
2023/07/22 11:24:17;;;;;;;2.20;1.67;;;;;;;29.70;nan;99361.06;4952467;28;21024;-79
2023/07/22 11:26:45;;;;;;;2.43;1.70;;;;;;;29.76;nan;99363.72;4956675;28;20584;-79
2023/07/22 11:29:11;;;;;;;3.83;2.10;;;;;;;29.84;nan;99361.72;4955275;28;20572;-80
2023/07/22 11:31:45;;;;;;;1.77;1.63;;;;;;;29.91;nan;99351.63;4957694;28;20488;-79
2023/07/22 11:34:22;;;;;;;2.23;1.63;;;;;;;29.90;nan;99344.59;4956766;28;20562;-80
2023/07/22 11:36:49;;;;;;;1.77;1.47;;;;;;;29.97;nan;99353.41;4955677;28;20559;-79
2023/07/22 11:39:16;;;;;;;1.83;1.40;;;;;;;30.08;nan;99351.81;4956538;28;20460;-80
2023/07/22 11:41:43;;;;;;;2.20;1.93;;;;;;;30.19;nan;99348.28;4956913;28;20542;-79
2023/07/22 11:44:12;;;;;;;2.70;1.80;;;;;;;30.14;nan;99348.19;4954987;28;20666;-79
2023/07/22 11:46:53;;;;;;;4.17;1.60;;;;;;;30.18;nan;99347.47;4955649;28;20472;-79
2023/07/22 11:49:32;;;;;;;1.90;1.33;;;;;;;30.25;nan;99343.88;4956284;28;20463;-78
2023/07/22 11:52:07;;;;;;;3.93;1.40;;;;;;;30.36;nan;99332.25;4954083;28;20476;-80
2023/07/22 11:54:35;;;;;;;1.53;1.40;;;;;;;30.46;nan;99339.78;4954958;28;20501;-80